Time;durP1;ratioP1;P1;durP2;ratioP2;P2;SDS_P1;SDS_P2;PMS_P1;PMS_P2;Temp;Humidity;BMP_temperature;BMP_pressure;BME280_temperature;BME280_humidity;BME280_pressure;Samples;Min_cycle;Max_cycle;Signal;HPM_P1;HPM_P2
2021/10/27 00:00:55;;;;;;;6.40;6.00;;;13.40;99.90;;;;;;5030148;28;20342;-65
2021/10/27 00:03:21;;;;;;;6.23;5.93;;;13.40;99.90;;;;;;5030545;28;20194;-65
2021/10/27 00:05:46;;;;;;;6.20;5.90;;;13.40;99.90;;;;;;5030821;28;20211;-65
2021/10/27 00:08:12;;;;;;;6.30;6.00;;;13.50;99.90;;;;;;5030718;28;20205;-65
2021/10/27 00:10:38;;;;;;;6.30;5.90;;;13.40;99.90;;;;;;5030761;28;20194;-65
2021/10/27 00:13:05;;;;;;;6.40;5.80;;;13.50;99.90;;;;;;5031031;28;20172;-65
2021/10/27 00:15:31;;;;;;;6.50;6.10;;;13.50;99.90;;;;;;5031220;28;20528;-65
2021/10/27 00:17:57;;;;;;;6.03;5.73;;;13.50;99.90;;;;;;5030548;28;20183;-64
2021/10/27 00:20:22;;;;;;;6.90;6.50;;;13.50;99.90;;;;;;5030427;28;20527;-65
2021/10/27 00:22:48;;;;;;;6.23;5.83;;;13.60;99.90;;;;;;5030298;28;20207;-65
2021/10/27 00:25:14;;;;;;;6.07;5.77;;;13.60;99.90;;;;;;5031066;28;20668;-65
2021/10/27 00:27:41;;;;;;;6.67;6.27;;;13.60;99.90;;;;;;5030705;28;20218;-65
2021/10/27 00:30:07;;;;;;;6.43;6.10;;;13.60;99.90;;;;;;5031717;28;20195;-65
2021/10/27 00:32:32;;;;;;;6.43;6.13;;;13.60;99.90;;;;;;5033989;28;20207;-65
2021/10/27 00:34:58;;;;;;;7.27;6.87;;;13.60;99.90;;;;;;5034300;28;20727;-65
2021/10/27 00:37:24;;;;;;;7.07;6.67;;;13.60;99.90;;;;;;5032895;28;20544;-65
2021/10/27 00:39:50;;;;;;;6.93;6.60;;;13.60;99.90;;;;;;5034042;28;20223;-65
2021/10/27 00:42:15;;;;;;;7.03;6.73;;;13.70;99.90;;;;;;5034549;28;20675;-65
2021/10/27 00:44:42;;;;;;;6.90;6.50;;;13.70;99.90;;;;;;5034672;28;20241;-65
2021/10/27 00:47:12;;;;;;;6.50;6.10;;;13.70;99.90;;;;;;5034481;28;20233;-65
2021/10/27 00:49:40;;;;;;;7.13;6.50;;;13.70;99.90;;;;;;5034429;28;20207;-65
2021/10/27 00:52:10;;;;;;;6.20;5.90;;;13.70;99.90;;;;;;5034625;28;20206;-65
2021/10/27 00:54:38;;;;;;;6.10;5.80;;;13.70;99.90;;;;;;5034483;28;20175;-65
2021/10/27 00:57:04;;;;;;;6.57;6.17;;;13.80;99.90;;;;;;5033758;28;20190;-65
2021/10/27 00:59:29;;;;;;;6.20;5.90;;;13.80;99.90;;;;;;5032982;28;20198;-65
2021/10/27 01:01:56;;;;;;;6.67;6.23;;;13.80;99.90;;;;;;5033454;28;20176;-65
2021/10/27 01:04:23;;;;;;;6.70;6.30;;;13.80;99.90;;;;;;5034333;28;20160;-65
2021/10/27 01:06:49;;;;;;;6.93;6.43;;;13.80;99.90;;;;;;5033777;28;20179;-65
2021/10/27 01:09:15;;;;;;;6.80;6.33;;;13.80;99.90;;;;;;5033799;28;20219;-65
2021/10/27 01:11:42;;;;;;;7.17;6.57;;;13.80;99.90;;;;;;5014649;28;20176;-65
2021/10/27 01:14:09;;;;;;;7.20;6.80;;;13.80;99.90;;;;;;5032614;28;20167;-65
2021/10/27 01:16:35;;;;;;;6.50;6.10;;;13.70;99.90;;;;;;5033888;28;20195;-67
2021/10/27 01:19:01;;;;;;;5.97;5.60;;;13.70;99.90;;;;;;5034251;28;20668;-65
2021/10/27 01:21:31;;;;;;;6.07;5.70;;;13.60;99.90;;;;;;5033069;28;20186;-65
2021/10/27 01:23:58;;;;;;;5.97;5.67;;;13.50;99.90;;;;;;5034324;28;20222;-65
2021/10/27 01:26:25;;;;;;;6.10;5.80;;;13.50;99.90;;;;;;5033809;28;20286;-65
2021/10/27 01:28:51;;;;;;;7.03;6.70;;;13.40;99.90;;;;;;5034455;28;20696;-65
2021/10/27 01:31:17;;;;;;;6.00;5.50;;;13.40;99.90;;;;;;5032795;28;20203;-65
2021/10/27 01:33:44;;;;;;;6.07;5.77;;;13.40;99.90;;;;;;5033576;28;20195;-65
2021/10/27 01:36:10;;;;;;;6.07;5.77;;;13.30;99.90;;;;;;5033839;28;20174;-65
2021/10/27 01:38:37;;;;;;;6.40;6.10;;;13.20;99.90;;;;;;5033721;28;20606;-65
2021/10/27 01:41:03;;;;;;;6.47;6.10;;;13.20;99.90;;;;;;5032287;28;20702;-65
2021/10/27 01:43:29;;;;;;;6.23;5.90;;;13.20;99.90;;;;;;5032158;28;20229;-65
2021/10/27 01:45:55;;;;;;;6.50;6.20;;;13.20;99.90;;;;;;5032950;28;20418;-65
2021/10/27 01:48:21;;;;;;;6.70;6.20;;;13.20;99.90;;;;;;5031678;28;20175;-65
2021/10/27 01:50:47;;;;;;;6.53;6.13;;;13.20;99.90;;;;;;5033624;28;20249;-65
2021/10/27 01:53:13;;;;;;;6.37;6.07;;;13.20;99.90;;;;;;5033612;28;20171;-65
2021/10/27 01:55:42;;;;;;;6.43;6.13;;;13.20;99.90;;;;;;5032593;28;20176;-65
2021/10/27 01:58:08;;;;;;;6.40;6.10;;;13.20;99.90;;;;;;5033409;28;20191;-65
2021/10/27 02:00:34;;;;;;;6.50;6.10;;;13.20;99.90;;;;;;5033083;28;20258;-65
2021/10/27 02:03:00;;;;;;;6.30;6.00;;;13.10;99.90;;;;;;5033231;28;20792;-65
2021/10/27 02:05:25;;;;;;;6.83;6.43;;;13.10;99.90;;;;;;5013631;28;20676;-65
2021/10/27 02:07:51;;;;;;;6.43;5.87;;;13.00;99.90;;;;;;5022202;28;20545;-65
2021/10/27 02:10:17;;;;;;;6.53;6.23;;;12.90;99.90;;;;;;5032886;28;20199;-64
2021/10/27 02:12:43;;;;;;;6.17;5.80;;;12.90;99.90;;;;;;5034131;28;20741;-68
2021/10/27 02:15:11;;;;;;;6.03;5.63;;;12.80;99.90;;;;;;5033818;28;20187;-69
2021/10/27 02:17:37;;;;;;;6.47;6.10;;;12.70;99.90;;;;;;5032744;28;20707;-69
2021/10/27 02:20:05;;;;;;;5.93;5.63;;;12.60;99.90;;;;;;5033916;28;20195;-68
2021/10/27 02:22:31;;;;;;;6.40;6.00;;;12.50;99.90;;;;;;5032990;28;20649;-68
2021/10/27 02:24:57;;;;;;;6.27;5.97;;;12.40;99.90;;;;;;5032780;28;20288;-69
2021/10/27 02:27:22;;;;;;;6.77;6.47;;;12.30;99.90;;;;;;5032332;28;20649;-68
2021/10/27 02:29:48;;;;;;;6.10;5.80;;;12.30;99.90;;;;;;5033397;28;20199;-67
2021/10/27 02:32:13;;;;;;;6.43;6.13;;;12.30;99.90;;;;;;5033713;28;20182;-68
2021/10/27 02:34:39;;;;;;;6.20;5.90;;;12.30;99.90;;;;;;5033112;28;20270;-69
2021/10/27 02:37:05;;;;;;;6.67;6.37;;;12.30;99.90;;;;;;5033594;28;20191;-69
2021/10/27 02:39:30;;;;;;;6.23;5.93;;;12.30;99.90;;;;;;5033518;28;20207;-67
2021/10/27 02:41:56;;;;;;;5.77;5.47;;;12.50;99.90;;;;;;5033441;28;20241;-70
2021/10/27 02:44:22;;;;;;;6.47;6.10;;;12.50;99.90;;;;;;5033582;28;20579;-65
2021/10/27 02:46:48;;;;;;;6.77;6.37;;;12.60;99.90;;;;;;5033454;28;20199;-68
2021/10/27 02:49:15;;;;;;;6.13;5.83;;;12.60;99.90;;;;;;5032362;28;20558;-66
2021/10/27 02:51:41;;;;;;;6.60;6.30;;;12.60;99.90;;;;;;5033113;28;20259;-68
2021/10/27 02:54:07;;;;;;;6.37;6.00;;;12.60;99.90;;;;;;5033340;28;20259;-67
2021/10/27 02:56:33;;;;;;;6.13;5.83;;;12.60;99.90;;;;;;5033303;28;20546;-70
2021/10/27 02:58:59;;;;;;;6.07;5.70;;;12.60;99.90;;;;;;5032805;28;20266;-68
2021/10/27 03:01:24;;;;;;;6.90;6.40;;;12.60;99.90;;;;;;5013656;28;20652;-68
2021/10/27 03:03:52;;;;;;;6.17;5.77;;;12.60;99.90;;;;;;5031810;28;20175;-67
2021/10/27 03:06:19;;;;;;;6.60;6.20;;;12.60;99.90;;;;;;5032405;28;20238;-67
2021/10/27 03:08:45;;;;;;;6.10;5.80;;;12.60;99.90;;;;;;5032882;28;20656;-68
2021/10/27 03:11:13;;;;;;;5.97;5.67;;;12.60;99.90;;;;;;5032577;28;20191;-69
2021/10/27 03:13:38;;;;;;;6.57;6.27;;;12.60;99.90;;;;;;5033178;28;20179;-66
2021/10/27 03:16:04;;;;;;;6.47;6.10;;;12.60;99.90;;;;;;5033148;28;20214;-68
2021/10/27 03:18:30;;;;;;;6.73;6.33;;;12.50;99.90;;;;;;5032924;28;20171;-67
2021/10/27 03:20:55;;;;;;;7.20;6.80;;;12.40;99.90;;;;;;5032236;28;20199;-69
2021/10/27 03:23:21;;;;;;;6.67;6.30;;;12.30;99.90;;;;;;5032395;28;20181;-69
2021/10/27 03:25:47;;;;;;;6.80;6.40;;;12.20;99.90;;;;;;5032519;28;20229;-69
2021/10/27 03:28:13;;;;;;;7.53;6.93;;;12.00;99.90;;;;;;5032004;28;20190;-69
2021/10/27 03:30:38;;;;;;;6.97;6.57;;;11.90;99.90;;;;;;5031798;28;20210;-67
2021/10/27 03:33:04;;;;;;;7.07;6.67;;;11.90;99.90;;;;;;5032585;28;20209;-69
2021/10/27 03:35:30;;;;;;;7.30;6.90;;;11.70;99.90;;;;;;5032557;28;20263;-68
2021/10/27 03:37:55;;;;;;;7.10;6.60;;;11.70;99.90;;;;;;5032767;28;20175;-70
2021/10/27 03:40:21;;;;;;;7.37;6.87;;;11.60;99.90;;;;;;5112053;22;20685;-68
2021/10/27 03:42:47;;;;;;;7.50;7.10;;;11.50;99.90;;;;;;5092359;28;20249;-68
2021/10/27 03:45:13;;;;;;;7.13;6.67;;;11.50;99.90;;;;;;5092318;28;20308;-66
2021/10/27 03:47:39;;;;;;;6.90;6.50;;;11.30;99.90;;;;;;5092134;28;20693;-69
2021/10/27 03:50:07;;;;;;;7.30;6.87;;;11.30;99.90;;;;;;5092166;28;20273;-70
2021/10/27 03:52:32;;;;;;;7.70;7.10;;;11.20;99.90;;;;;;5092315;28;20189;-71
2021/10/27 03:54:58;;;;;;;6.93;6.53;;;11.10;99.90;;;;;;5092494;28;20642;-70
2021/10/27 03:57:24;;;;;;;7.13;6.67;;;11.10;99.90;;;;;;5092102;28;20240;-69
2021/10/27 03:59:49;;;;;;;7.63;7.07;;;11.10;99.90;;;;;;5091084;28;20220;-64
2021/10/27 04:02:15;;;;;;;6.80;6.40;;;11.00;99.90;;;;;;5090983;28;20230;-64
2021/10/27 04:04:40;;;;;;;7.53;7.00;;;11.00;99.90;;;;;;5092401;28;20191;-64
2021/10/27 04:07:06;;;;;;;7.50;7.00;;;11.00;99.90;;;;;;5095108;28;20188;-64
2021/10/27 04:09:31;;;;;;;6.73;6.33;;;10.90;99.90;;;;;;5095384;28;20267;-64
2021/10/27 04:11:57;;;;;;;6.70;6.30;;;10.90;99.90;;;;;;5095154;28;20165;-65
2021/10/27 04:14:23;;;;;;;7.20;6.80;;;10.90;99.90;;;;;;5094091;28;20169;-63
2021/10/27 04:16:48;;;;;;;7.80;7.30;;;11.00;99.90;;;;;;5094734;28;20193;-63
2021/10/27 04:19:14;;;;;;;7.80;7.20;;;11.00;99.90;;;;;;5094791;28;20174;-64
2021/10/27 04:21:40;;;;;;;8.70;7.77;;;11.00;99.90;;;;;;5094631;28;20177;-64
2021/10/27 04:24:06;;;;;;;7.63;7.23;;;11.10;99.90;;;;;;5094989;28;20515;-64
2021/10/27 04:26:31;;;;;;;7.77;7.30;;;11.20;99.90;;;;;;5094694;28;20696;-64
2021/10/27 04:28:57;;;;;;;7.53;6.90;;;11.30;99.90;;;;;;5094706;28;20173;-64
2021/10/27 04:31:23;;;;;;;7.30;6.70;;;11.40;99.90;;;;;;5094274;28;20193;-63
2021/10/27 04:33:49;;;;;;;6.97;6.47;;;11.40;99.90;;;;;;5094613;28;20256;-64
2021/10/27 04:36:15;;;;;;;7.20;6.70;;;11.50;99.90;;;;;;5094880;28;20235;-64
2021/10/27 04:38:41;;;;;;;7.23;6.73;;;11.50;99.90;;;;;;5094382;28;20235;-64
2021/10/27 04:41:07;;;;;;;8.03;7.40;;;11.60;99.90;;;;;;5094429;28;20237;-64
2021/10/27 04:43:33;;;;;;;7.43;7.03;;;11.60;99.90;;;;;;5094290;28;20209;-63
2021/10/27 04:45:58;;;;;;;7.67;7.17;;;11.60;99.90;;;;;;5094742;28;20213;-64
2021/10/27 04:48:24;;;;;;;7.53;7.10;;;11.60;99.90;;;;;;5093843;28;20181;-64
2021/10/27 04:50:50;;;;;;;7.50;7.00;;;11.50;99.90;;;;;;5094137;28;20196;-64
2021/10/27 04:53:18;;;;;;;7.97;7.07;;;11.50;99.90;;;;;;5094345;28;20639;-63
2021/10/27 04:55:46;;;;;;;8.07;7.47;;;11.60;99.90;;;;;;5094487;28;20545;-64
2021/10/27 04:58:13;;;;;;;7.40;6.90;;;11.60;99.90;;;;;;5093598;28;20549;-63
2021/10/27 05:00:39;;;;;;;7.00;6.60;;;11.60;99.90;;;;;;5094413;28;20201;-64
2021/10/27 05:03:05;;;;;;;8.40;7.47;;;11.70;99.90;;;;;;5094267;28;20426;-64
2021/10/27 05:05:34;;;;;;;7.23;6.60;;;11.80;99.90;;;;;;5092927;28;20684;-64
2021/10/27 05:08:01;;;;;;;7.57;6.97;;;11.90;99.90;;;;;;5092425;28;20169;-63
2021/10/27 05:10:27;;;;;;;8.13;7.53;;;11.90;99.90;;;;;;5094133;28;20234;-64
2021/10/27 05:12:52;;;;;;;10.27;9.37;;;11.90;99.90;;;;;;5094315;28;20177;-64
2021/10/27 05:15:18;;;;;;;8.60;7.90;;;11.90;99.90;;;;;;5094471;28;20212;-63
2021/10/27 05:17:44;;;;;;;8.10;7.50;;;11.90;99.90;;;;;;5094222;28;20189;-64
2021/10/27 05:20:09;;;;;;;8.70;7.90;;;11.90;99.90;;;;;;5094140;28;20198;-64
2021/10/27 05:22:35;;;;;;;8.00;7.30;;;11.90;99.90;;;;;;5094068;28;20169;-64
2021/10/27 05:25:01;;;;;;;7.97;7.47;;;11.90;99.90;;;;;;5094256;28;20558;-64
2021/10/27 05:27:30;;;;;;;8.40;7.70;;;11.90;99.90;;;;;;5094252;28;20166;-63
2021/10/27 05:29:55;;;;;;;8.63;7.77;;;11.90;99.90;;;;;;5092458;28;20554;-64
2021/10/27 05:32:21;;;;;;;8.83;8.20;;;11.90;99.90;;;;;;5093322;28;20165;-64
2021/10/27 05:34:46;;;;;;;7.93;7.23;;;11.90;99.90;;;;;;5093255;28;20181;-64
2021/10/27 05:37:12;;;;;;;7.77;7.00;;;11.90;99.90;;;;;;5093634;28;20173;-64
2021/10/27 05:39:37;;;;;;;7.50;6.90;;;12.00;99.90;;;;;;5093153;28;20201;-64
2021/10/27 05:42:04;;;;;;;7.60;7.10;;;12.00;99.90;;;;;;5093930;28;20739;-63
2021/10/27 05:44:31;;;;;;;7.80;7.17;;;12.10;99.90;;;;;;5094064;28;20177;-63
2021/10/27 05:46:57;;;;;;;7.73;7.23;;;12.10;99.90;;;;;;5093514;28;20173;-64
2021/10/27 05:51:54;;;;;;;8.20;7.60;;;12.20;99.90;;;;;;5075932;28;20170;-64
2021/10/27 05:57:05;;;;;;;8.57;8.00;;;12.20;99.90;;;;;;5093748;28;20260;-63
2021/10/27 05:59:31;;;;;;;7.70;7.20;;;12.20;99.90;;;;;;5092453;28;20288;-63
2021/10/27 06:01:58;;;;;;;7.70;7.20;;;12.20;99.90;;;;;;5093629;28;20169;-63
2021/10/27 06:04:24;;;;;;;8.07;7.40;;;12.20;99.90;;;;;;5093321;28;20669;-64
2021/10/27 06:06:49;;;;;;;7.90;7.30;;;12.20;99.90;;;;;;5092986;28;20233;-64
2021/10/27 06:09:16;;;;;;;8.20;7.53;;;12.10;99.90;;;;;;5079637;28;20654;-64
2021/10/27 06:11:43;;;;;;;8.27;6.93;;;12.20;99.90;;;;;;5073315;28;20481;-63
2021/10/27 06:14:09;;;;;;;7.40;7.00;;;12.20;99.90;;;;;;5093702;28;20224;-64
2021/10/27 06:16:34;;;;;;;7.07;6.57;;;12.30;99.90;;;;;;5090826;28;20204;-63
2021/10/27 06:19:00;;;;;;;7.40;6.90;;;12.30;99.90;;;;;;5093038;28;20220;-63
2021/10/27 06:21:26;;;;;;;7.53;6.93;;;12.40;99.90;;;;;;5092887;28;20221;-62
2021/10/27 06:23:53;;;;;;;7.60;7.10;;;12.40;99.90;;;;;;5072970;28;20665;-62
2021/10/27 06:26:23;;;;;;;8.10;7.30;;;12.50;99.90;;;;;;5072798;28;20292;-63
2021/10/27 06:31:26;;;;;;;7.17;6.77;;;12.50;99.90;;;;;;5093054;28;20190;-63
2021/10/27 06:34:01;;;;;;;7.90;7.10;;;12.50;99.90;;;;;;5072256;28;20578;-63
2021/10/27 06:36:55;;;;;;;7.10;6.70;;;12.50;99.90;;;;;;5086356;28;20680;-63
2021/10/27 06:47:16;;;;;;;7.93;7.33;;;12.60;99.90;;;;;;5092532;28;20254;-63
2021/10/27 06:49:42;;;;;;;8.20;7.50;;;12.60;99.90;;;;;;5091500;28;20273;-64
2021/10/27 06:52:07;;;;;;;8.43;7.93;;;12.60;99.90;;;;;;5092353;28;20623;-64
2021/10/27 06:54:33;;;;;;;7.40;6.90;;;12.70;99.90;;;;;;5092084;28;20214;-63
2021/10/27 06:56:59;;;;;;;7.77;7.17;;;12.70;99.90;;;;;;5092438;28;20539;-64
2021/10/27 07:15:16;;;;;;;6.90;6.50;;;13.00;99.90;;;;;;5091876;28;20181;-64
2021/10/27 07:17:48;;;;;;;7.00;6.60;;;13.10;99.90;;;;;;5092006;28;20246;-63
2021/10/27 07:20:13;;;;;;;6.77;6.37;;;13.10;99.90;;;;;;5091558;28;20241;-63
2021/10/27 07:22:39;;;;;;;7.83;6.20;;;13.20;99.90;;;;;;5091961;28;20200;-63
2021/10/27 07:25:05;;;;;;;7.33;6.73;;;13.10;99.90;;;;;;5090606;28;20279;-63
2021/10/27 07:27:31;;;;;;;6.10;5.70;;;13.20;99.90;;;;;;5091595;28;20166;-64
2021/10/27 07:29:57;;;;;;;7.10;6.70;;;13.20;99.90;;;;;;5091678;28;20626;-63
2021/10/27 07:32:24;;;;;;;7.07;6.60;;;13.30;99.90;;;;;;5088113;28;20188;-63
2021/10/27 07:34:56;;;;;;;7.40;6.97;;;13.40;99.90;;;;;;5071675;28;20178;-63
2021/10/27 07:42:35;;;;;;;7.23;6.73;;;13.50;99.90;;;;;;5090608;28;20170;-63
2021/10/27 07:45:02;;;;;;;8.00;7.20;;;13.60;99.90;;;;;;5089438;28;20193;-64
2021/10/27 07:47:28;;;;;;;7.00;6.60;;;13.60;99.90;;;;;;5071415;28;20178;-63
2021/10/27 07:49:54;;;;;;;7.00;6.60;;;13.60;99.90;;;;;;5070901;28;20201;-64
2021/10/27 07:52:19;;;;;;;8.50;8.00;;;13.60;99.90;;;;;;5071423;28;20194;-64
2021/10/27 07:54:46;;;;;;;8.60;7.93;;;13.60;99.90;;;;;;5086177;28;20188;-64
2021/10/27 07:57:12;;;;;;;7.30;6.90;;;13.60;99.90;;;;;;5091595;28;20534;-64
2021/10/27 07:59:37;;;;;;;7.20;6.80;;;13.60;99.90;;;;;;5090544;28;20193;-63
2021/10/27 08:02:06;;;;;;;7.60;7.10;;;13.60;99.90;;;;;;5091546;28;20169;-64
2021/10/27 08:04:33;;;;;;;6.80;6.30;;;13.60;99.90;;;;;;5091122;28;20551;-64
2021/10/27 08:07:00;;;;;;;7.50;7.10;;;13.60;99.90;;;;;;5091303;28;20201;-64
2021/10/27 08:09:25;;;;;;;8.43;7.83;;;13.70;99.90;;;;;;5090718;28;20236;-63
2021/10/27 08:11:51;;;;;;;7.50;6.90;;;13.70;99.90;;;;;;5090773;28;20723;-64
2021/10/27 08:14:16;;;;;;;7.80;7.10;;;13.70;99.90;;;;;;5091252;28;20177;-64
2021/10/27 08:16:42;;;;;;;7.17;6.67;;;13.70;99.90;;;;;;5091297;28;20635;-64
2021/10/27 08:19:09;;;;;;;7.73;7.07;;;13.70;99.90;;;;;;5089964;28;20288;-64
2021/10/27 08:21:35;;;;;;;7.50;6.93;;;13.70;99.90;;;;;;5090961;28;20274;-63
2021/10/27 08:24:01;;;;;;;7.70;7.10;;;13.60;99.90;;;;;;5089308;28;20177;-64
2021/10/27 08:26:28;;;;;;;8.20;7.63;;;13.60;99.90;;;;;;5089301;28;20208;-63
2021/10/27 08:28:56;;;;;;;7.17;6.67;;;13.60;99.90;;;;;;5091270;28;20591;-63
2021/10/27 08:36:19;;;;;;;7.20;6.70;;;13.70;99.90;;;;;;5070987;28;20715;-63
2021/10/27 08:38:45;;;;;;;7.60;7.20;;;13.90;99.90;;;;;;5089993;28;20612;-63
2021/10/27 08:41:12;;;;;;;6.70;6.40;;;14.00;99.90;;;;;;5090919;28;20205;-63
2021/10/27 08:43:38;;;;;;;7.20;6.80;;;14.00;99.90;;;;;;5089172;28;20199;-63
2021/10/27 08:46:06;;;;;;;7.43;7.03;;;14.10;99.90;;;;;;5090891;28;20209;-63
2021/10/27 08:48:34;;;;;;;6.93;6.53;;;14.20;99.90;;;;;;5090683;28;20185;-63
2021/10/27 08:51:02;;;;;;;6.90;6.27;;;14.30;99.90;;;;;;5092054;28;20561;-63
2021/10/27 08:53:29;;;;;;;7.60;6.90;;;14.40;99.90;;;;;;5093192;28;20227;-64
2021/10/27 08:55:55;;;;;;;6.70;6.17;;;14.50;99.90;;;;;;5094741;28;20181;-64
2021/10/27 08:58:35;;;;;;;7.03;6.60;;;14.60;99.90;;;;;;5094884;28;20178;-64
2021/10/27 09:06:19;;;;;;;6.00;5.70;;;14.60;99.90;;;;;;5085812;28;20293;-64
2021/10/27 09:34:39;;;;;;;7.53;6.97;;;15.00;99.90;;;;;;5092978;28;20208;-64
2021/10/27 09:37:30;;;;;;;6.83;6.43;;;15.10;99.90;;;;;;5094124;28;20185;-64
2021/10/27 09:43:02;;;;;;;7.60;7.10;;;15.20;99.90;;;;;;5053929;28;20179;-65
2021/10/27 10:05:11;;;;;;;6.83;6.43;;;15.70;99.90;;;;;;5053358;28;20624;-65
2021/10/27 10:07:37;;;;;;;6.50;6.10;;;15.80;99.90;;;;;;5052788;28;20539;-64
2021/10/27 10:10:06;;;;;;;6.03;5.67;;;15.90;99.90;;;;;;5052805;28;20190;-65
2021/10/27 10:12:37;;;;;;;6.23;5.83;;;16.00;99.90;;;;;;5052631;28;20206;-64
2021/10/27 10:15:04;;;;;;;5.80;5.50;;;16.10;99.90;;;;;;5053141;28;20663;-64
2021/10/27 10:17:32;;;;;;;6.03;5.60;;;16.10;99.90;;;;;;5052380;28;20187;-65
2021/10/27 10:19:59;;;;;;;6.43;5.93;;;16.20;99.90;;;;;;5052795;28;20639;-65
2021/10/27 10:22:27;;;;;;;6.10;5.77;;;16.40;99.90;;;;;;5051113;28;20171;-64
2021/10/27 10:24:52;;;;;;;6.53;6.13;;;16.60;99.90;;;;;;5052545;28;20595;-64
2021/10/27 10:27:38;;;;;;;6.50;5.90;;;16.80;99.90;;;;;;5052174;28;20318;-65
2021/10/27 10:30:52;;;;;;;5.77;5.30;;;17.10;99.90;;;;;;5052915;28;20219;-64
2021/10/27 10:33:20;;;;;;;5.50;5.20;;;17.30;99.90;;;;;;5052104;28;20670;-65
2021/10/27 11:23:59;;;;;;;5.90;4.67;;;18.20;99.90;;;;;;5051460;28;20228;-65
2021/10/27 11:40:23;;;;;;;4.93;4.53;;;20.10;99.90;;;;;;5050694;28;20241;-64
2021/10/27 11:47:59;;;;;;;4.70;4.40;;;20.50;99.90;;;;;;5051075;28;20659;-64
2021/10/27 11:50:34;;;;;;;4.77;4.37;;;20.70;99.90;;;;;;5050709;28;20245;-64
2021/10/27 11:53:02;;;;;;;4.90;4.60;;;20.80;99.90;;;;;;5051109;28;20174;-64
2021/10/27 11:55:33;;;;;;;4.57;4.27;;;20.50;99.90;;;;;;5030978;28;20259;-65
2021/10/27 11:57:59;;;;;;;5.83;5.33;;;20.40;99.90;;;;;;5031241;28;20183;-70
2021/10/27 12:00:39;;;;;;;4.63;4.33;;;20.10;99.90;;;;;;5050164;28;20203;-65
2021/10/27 12:03:21;;;;;;;4.97;4.70;;;20.10;99.90;;;;;;5051268;28;20178;-65
2021/10/27 12:05:58;;;;;;;5.03;4.63;;;20.40;99.90;;;;;;5030849;28;20596;-64
2021/10/27 12:11:16;;;;;;;5.70;5.20;;;20.80;99.90;;;;;;5050344;28;20186;-65
2021/10/27 12:19:22;;;;;;;5.07;4.67;;;21.40;99.90;;;;;;5050783;28;20175;-65
2021/10/27 12:21:57;;;;;;;4.77;4.30;;;21.50;99.90;;;;;;5050521;28;20202;-64
2021/10/27 12:24:29;;;;;;;4.00;3.70;;;21.80;99.90;;;;;;5050708;28;20224;-65
2021/10/27 12:27:06;;;;;;;4.40;4.20;;;21.60;99.90;;;;;;5053673;28;20194;-64
2021/10/27 12:29:36;;;;;;;4.27;4.07;;;21.40;99.90;;;;;;5054383;28;20197;-65
2021/10/27 12:32:05;;;;;;;4.97;4.50;;;21.40;99.90;;;;;;5053224;28;20306;-64
2021/10/27 12:34:32;;;;;;;4.67;4.30;;;21.30;99.90;;;;;;5054354;28;20216;-65
2021/10/27 12:36:59;;;;;;;4.63;4.20;;;21.20;99.90;;;;;;5054589;28;20186;-65
2021/10/27 12:39:41;;;;;;;6.63;5.60;;;21.00;99.90;;;;;;5053996;28;20213;-65
2021/10/27 12:42:10;;;;;;;6.60;6.30;;;20.90;99.90;;;;;;5034866;28;20187;-64
2021/10/27 12:44:53;;;;;;;5.77;5.47;;;20.90;99.90;;;;;;5035454;28;20172;-64
2021/10/27 12:47:25;;;;;;;5.07;4.77;;;20.90;99.90;;;;;;5055322;28;20181;-63
2021/10/27 12:50:06;;;;;;;4.30;4.10;;;21.00;99.90;;;;;;5053988;28;20220;-64
2021/10/27 12:52:38;;;;;;;4.13;3.93;;;21.20;99.90;;;;;;5054155;28;20174;-65
2021/10/27 12:55:07;;;;;;;4.50;4.17;;;21.50;99.90;;;;;;5054983;28;20175;-64
2021/10/27 12:57:56;;;;;;;6.50;6.10;;;21.50;99.90;;;;;;5054210;28;20174;-64
2021/10/27 13:00:46;;;;;;;4.90;4.60;;;21.50;99.90;;;;;;5053675;28;20214;-64
2021/10/27 13:06:10;;;;;;;4.77;4.53;;;21.20;99.90;;;;;;5053908;28;20237;-63
2021/10/27 13:08:52;;;;;;;5.10;4.70;;;20.90;99.90;;;;;;5053573;28;20186;-64
2021/10/27 13:11:35;;;;;;;5.13;4.83;;;20.60;99.90;;;;;;5053663;28;20206;-64
2021/10/27 13:14:10;;;;;;;5.00;4.70;;;20.50;99.90;;;;;;5053906;28;20175;-63
2021/10/27 13:21:42;;;;;;;5.40;5.00;;;20.10;99.90;;;;;;5053443;28;20198;-63
2021/10/27 13:32:07;;;;;;;5.13;4.93;;;19.70;99.90;;;;;;5034007;28;20207;-63
2021/10/27 13:34:34;;;;;;;5.83;5.53;;;19.70;99.90;;;;;;5053481;28;20163;-64
2021/10/27 13:37:02;;;;;;;5.90;5.50;;;19.70;99.90;;;;;;5051769;28;20619;-64
2021/10/27 13:39:28;;;;;;;5.17;4.87;;;19.80;99.90;;;;;;5053237;28;20174;-63
2021/10/27 13:41:57;;;;;;;4.70;4.30;;;20.00;99.90;;;;;;5053138;28;20215;-64
2021/10/27 13:44:27;;;;;;;5.47;5.13;;;20.10;99.90;;;;;;5053329;28;20163;-64
2021/10/27 13:47:15;;;;;;;5.10;4.83;;;20.20;99.90;;;;;;5052986;28;20210;-64
2021/10/27 14:06:02;;;;;;;5.43;5.03;;;19.70;99.90;;;;;;5052754;28;20300;-64
2021/10/27 14:14:10;;;;;;;6.20;5.63;;;19.70;99.90;;;;;;5053002;28;20277;-64
2021/10/27 15:21:49;;;;;;;5.30;5.03;;;18.20;99.90;;;;;;5052031;28;20212;-64
2021/10/27 15:24:34;;;;;;;5.07;4.77;;;18.20;99.90;;;;;;5048764;28;20265;-64
2021/10/27 15:32:38;;;;;;;5.33;5.03;;;18.00;99.90;;;;;;5032403;28;20683;-64
2021/10/27 15:51:36;;;;;;;6.10;5.80;;;16.50;99.90;;;;;;5061583;28;20201;-64
2021/10/27 15:54:03;;;;;;;5.83;5.43;;;16.30;99.90;;;;;;5055067;28;20177;-65
2021/10/27 15:56:29;;;;;;;5.53;5.23;;;16.20;99.90;;;;;;5062397;28;20545;-64
2021/10/27 15:58:55;;;;;;;6.03;5.40;;;16.10;99.90;;;;;;5071422;28;20170;-66
2021/10/27 16:01:21;;;;;;;6.07;5.67;;;16.00;99.90;;;;;;5059080;28;20676;-66
2021/10/27 16:03:47;;;;;;;5.90;5.40;;;15.90;99.90;;;;;;5050377;28;20257;-66
2021/10/27 16:06:15;;;;;;;6.20;5.80;;;15.80;99.90;;;;;;5057687;28;20206;-66
2021/10/27 16:08:45;;;;;;;5.13;4.90;;;15.70;99.90;;;;;;5071338;28;20570;-65
2021/10/27 16:11:11;;;;;;;5.87;5.47;;;15.60;99.90;;;;;;5063410;28;20186;-66
2021/10/27 16:13:36;;;;;;;5.63;5.13;;;15.50;99.90;;;;;;5050303;28;20172;-66
2021/10/27 16:16:03;;;;;;;5.50;5.20;;;15.40;99.90;;;;;;5056182;28;20178;-65
2021/10/27 16:18:32;;;;;;;6.43;5.00;;;15.30;99.90;;;;;;5070709;28;20181;-66
2021/10/27 16:21:01;;;;;;;6.10;5.60;;;15.30;99.90;;;;;;5064396;28;20287;-64
2021/10/27 16:23:27;;;;;;;6.37;5.87;;;15.10;99.90;;;;;;5051173;28;20175;-66
2021/10/27 16:25:54;;;;;;;6.10;5.67;;;15.10;99.90;;;;;;5051087;28;20651;-66
2021/10/27 16:28:21;;;;;;;6.10;5.80;;;15.00;99.90;;;;;;5071310;28;20188;-64
2021/10/27 16:30:47;;;;;;;6.37;5.87;;;14.90;99.90;;;;;;5068847;28;20260;-65
2021/10/27 16:33:14;;;;;;;6.07;5.77;;;14.80;99.90;;;;;;5050941;28;20647;-64
2021/10/27 16:35:42;;;;;;;5.63;5.33;;;14.70;99.90;;;;;;5051126;28;20174;-65
2021/10/27 16:38:08;;;;;;;6.53;6.20;;;14.60;99.90;;;;;;5031180;28;20199;-64
2021/10/27 16:40:34;;;;;;;6.20;5.70;;;14.50;99.90;;;;;;5029456;28;20710;-65
2021/10/27 16:43:01;;;;;;;6.30;6.00;;;14.40;99.90;;;;;;5068469;28;20265;-65
2021/10/27 16:45:27;;;;;;;6.60;6.20;;;14.40;99.90;;;;;;5070634;28;20194;-65
2021/10/27 16:47:52;;;;;;;7.17;6.67;;;14.30;99.90;;;;;;5053050;28;20248;-65
2021/10/27 16:50:19;;;;;;;6.40;6.00;;;14.20;99.90;;;;;;5049903;28;20191;-64
2021/10/27 16:52:46;;;;;;;6.17;5.77;;;14.10;99.90;;;;;;5066127;28;20186;-65
2021/10/27 16:55:18;;;;;;;6.80;6.30;;;14.00;99.90;;;;;;5064458;28;20171;-65
2021/10/27 16:57:48;;;;;;;7.13;6.63;;;14.00;99.90;;;;;;5050809;28;20174;-64
2021/10/27 17:00:19;;;;;;;7.10;6.60;;;13.90;99.90;;;;;;5054009;28;20177;-64
2021/10/27 17:02:45;;;;;;;6.90;6.33;;;13.80;99.90;;;;;;5066812;28;20182;-65
2021/10/27 17:05:11;;;;;;;7.07;6.70;;;13.70;99.90;;;;;;5069102;28;20244;-64
2021/10/27 17:07:38;;;;;;;7.30;6.80;;;13.70;99.90;;;;;;5053775;28;20636;-64
2021/10/27 17:10:06;;;;;;;8.27;7.67;;;13.60;99.90;;;;;;5050039;28;20179;-65
2021/10/27 17:12:32;;;;;;;6.70;6.27;;;13.60;99.90;;;;;;5052820;28;20167;-64
2021/10/27 17:14:58;;;;;;;7.53;6.93;;;13.50;99.90;;;;;;5054243;28;20170;-64
2021/10/27 17:17:23;;;;;;;7.10;6.60;;;13.40;99.90;;;;;;5053989;28;20167;-63
2021/10/27 17:19:49;;;;;;;6.83;6.43;;;13.30;99.90;;;;;;5053636;28;20170;-65
2021/10/27 17:22:16;;;;;;;6.80;6.17;;;13.20;99.90;;;;;;5053090;28;20189;-65
2021/10/27 17:24:42;;;;;;;7.47;7.07;;;13.20;99.90;;;;;;5054115;28;20178;-66
2021/10/27 17:27:08;;;;;;;6.27;5.97;;;13.20;99.90;;;;;;5053968;28;20285;-65
2021/10/27 17:29:33;;;;;;;6.77;6.10;;;13.10;99.90;;;;;;5053678;28;20529;-66
2021/10/27 17:31:59;;;;;;;6.70;6.30;;;13.10;99.90;;;;;;5053555;28;20189;-65
2021/10/27 17:34:26;;;;;;;7.33;6.70;;;13.10;99.90;;;;;;5053770;28;20624;-66
2021/10/27 17:36:51;;;;;;;6.80;6.30;;;13.10;99.90;;;;;;5053864;28;20171;-65
2021/10/27 17:39:17;;;;;;;6.87;6.37;;;13.00;99.90;;;;;;5053592;28;20193;-66
2021/10/27 17:41:46;;;;;;;7.70;7.13;;;13.00;99.90;;;;;;5053463;28;20214;-66
2021/10/27 17:44:13;;;;;;;8.03;7.33;;;13.00;99.90;;;;;;5053936;28;20536;-65
2021/10/27 17:46:50;;;;;;;7.20;6.80;;;12.90;99.90;;;;;;5053801;28;20237;-66